Time;durP1;ratioP1;P1;durP2;ratioP2;P2;SDS_P1;SDS_P2;PMS_P1;PMS_P2;Temp;Humidity;BMP_temperature;BMP_pressure;BME280_temperature;BME280_humidity;BME280_pressure;Samples;Min_cycle;Max_cycle;Signal;HPM_P1;HPM_P2
2023/06/17 00:01:01;;;;;;;4.28;1.50;;;;;;;;;;5071226;28;20033;-74
2023/06/17 00:03:27;;;;;;;2.40;1.38;;;;;;;;;;5078372;28;20831;-77
2023/06/17 00:05:52;;;;;;;5.50;1.40;;;;;;;;;;5080434;28;20024;-73
2023/06/17 00:08:17;;;;;;;1.20;1.10;;;;;;;;;;5078043;28;20031;-72
2023/06/17 00:10:43;;;;;;;5.63;1.58;;;;;;;;;;5069093;28;20032;-74
2023/06/17 00:13:09;;;;;;;2.22;1.27;;;;;;;;;;5073243;28;20031;-75
2023/06/17 00:15:36;;;;;;;1.50;1.10;;;;;;;;;;5066885;28;20028;-73
2023/06/17 00:18:03;;;;;;;2.65;1.25;;;;;;;;;;5078554;28;20039;-74
2023/06/17 00:20:29;;;;;;;1.33;1.00;;;;;;;;;;5076984;28;20032;-72
2023/06/17 00:22:54;;;;;;;2.05;1.20;;;;;;;;;;5077720;28;20358;-73
2023/06/17 00:25:19;;;;;;;1.05;1.00;;;;;;;;;;5070099;28;20026;-73
2023/06/17 00:27:45;;;;;;;4.95;1.00;;;;;;;;;;5079208;28;20039;-78
2023/06/17 00:30:10;;;;;;;1.20;1.00;;;;;;;;;;5081020;28;20028;-74
2023/06/17 00:32:36;;;;;;;2.72;1.10;;;;;;;;;;5072988;28;20032;-74
2023/06/17 00:35:05;;;;;;;1.95;0.82;;;;;;;;;;5069694;28;20020;-75
2023/06/17 00:37:31;;;;;;;3.13;0.80;;;;;;;;;;5082694;28;20031;-72
2023/06/17 00:39:56;;;;;;;1.48;0.90;;;;;;;;;;5073774;28;20032;-74
2023/06/17 00:42:21;;;;;;;1.15;0.80;;;;;;;;;;5076195;28;20032;-76
2023/06/17 00:44:47;;;;;;;2.58;0.70;;;;;;;;;;5082858;28;20420;-73
2023/06/17 00:47:13;;;;;;;1.15;0.90;;;;;;;;;;5083049;28;20031;-73
2023/06/17 00:49:42;;;;;;;2.03;0.80;;;;;;;;;;5081401;28;20088;-71
2023/06/17 00:52:09;;;;;;;1.88;0.60;;;;;;;;;;5080872;28;20109;-74
2023/06/17 00:54:38;;;;;;;2.15;0.60;;;;;;;;;;5073367;28;20500;-74
2023/06/17 00:57:13;;;;;;;0.73;0.55;;;;;;;;;;5077392;28;20400;-75
2023/06/17 00:59:39;;;;;;;4.68;0.60;;;;;;;;;;5082251;28;20028;-73
2023/06/17 01:02:09;;;;;;;0.50;0.50;;;;;;;;;;5078657;28;20040;-74
2023/06/17 01:04:37;;;;;;;1.65;0.50;;;;;;;;;;5082998;28;20104;-72
2023/06/17 01:07:05;;;;;;;1.23;0.50;;;;;;;;;;5078419;28;20017;-77
2023/06/17 01:09:34;;;;;;;1.85;0.60;;;;;;;;;;5075422;28;20043;-73
2023/06/17 01:11:59;;;;;;;1.38;0.68;;;;;;;;;;5075512;28;20032;-74
2023/06/17 01:14:26;;;;;;;1.52;0.70;;;;;;;;;;5082561;28;20097;-73
2023/06/17 01:16:54;;;;;;;1.45;0.60;;;;;;;;;;5068920;28;20110;-72
2023/06/17 01:19:24;;;;;;;0.40;0.40;;;;;;;;;;5078560;28;20115;-74
2023/06/17 01:21:53;;;;;;;1.42;0.60;;;;;;;;;;5081921;28;20059;-74
2023/06/17 01:24:29;;;;;;;0.80;0.50;;;;;;;;;;5075213;28;20435;-73
2023/06/17 01:26:57;;;;;;;0.57;0.50;;;;;;;;;;5073606;28;20114;-73
2023/06/17 01:29:29;;;;;;;1.13;0.70;;;;;;;;;;5081602;28;20064;-75
2023/06/17 01:31:59;;;;;;;0.57;0.57;;;;;;;;;;5078793;28;20027;-74
2023/06/17 01:34:31;;;;;;;0.75;0.70;;;;;;;;;;5079823;28;20039;-75
2023/06/17 01:36:57;;;;;;;1.77;0.57;;;;;;;;;;5071645;28;20038;-74
2023/06/17 01:39:23;;;;;;;2.40;0.50;;;;;;;;;;5075646;28;20032;-73
2023/06/17 01:41:52;;;;;;;0.95;0.40;;;;;;;;;;5074787;28;20028;-73
2023/06/17 01:44:17;;;;;;;1.25;0.63;;;;;;;;;;5080668;28;20746;-73
2023/06/17 01:46:43;;;;;;;0.57;0.32;;;;;;;;;;5080069;28;20028;-73
2023/06/17 01:49:08;;;;;;;0.30;0.30;;;;;;;;;;5081410;28;20028;-73
2023/06/17 01:51:33;;;;;;;0.85;0.50;;;;;;;;;;5081115;28;20032;-73
2023/06/17 01:53:59;;;;;;;0.75;0.45;;;;;;;;;;5080563;28;20038;-73
2023/06/17 01:56:24;;;;;;;2.95;0.52;;;;;;;;;;5071230;28;20016;-73
2023/06/17 01:58:50;;;;;;;2.05;0.50;;;;;;;;;;5079088;28;20058;-75
2023/06/17 02:01:15;;;;;;;0.68;0.40;;;;;;;;;;5081022;28;20035;-73
2023/06/17 02:03:42;;;;;;;1.23;0.50;;;;;;;;;;5073646;28;20038;-76
2023/06/17 02:06:07;;;;;;;0.85;0.40;;;;;;;;;;5078996;28;20028;-72
2023/06/17 02:08:34;;;;;;;2.15;0.60;;;;;;;;;;5081737;28;20024;-75
2023/06/17 02:11:00;;;;;;;0.82;0.80;;;;;;;;;;5069537;28;20465;-75
2023/06/17 02:13:25;;;;;;;0.82;0.60;;;;;;;;;;5069998;28;20123;-73
2023/06/17 02:15:50;;;;;;;1.38;0.50;;;;;;;;;;5082360;28;20035;-75
2023/06/17 02:18:16;;;;;;;1.33;0.50;;;;;;;;;;5080610;28;20024;-73
2023/06/17 02:20:41;;;;;;;0.65;0.52;;;;;;;;;;5076787;28;20028;-73
2023/06/17 02:23:07;;;;;;;0.60;0.50;;;;;;;;;;5073832;28;20103;-72
2023/06/17 02:25:33;;;;;;;0.43;0.43;;;;;;;;;;5068456;28;20753;-72
2023/06/17 02:27:58;;;;;;;0.43;0.40;;;;;;;;;;5078901;28;20033;-72
2023/06/17 02:30:23;;;;;;;1.55;0.40;;;;;;;;;;5078849;28;20039;-73
2023/06/17 02:32:49;;;;;;;1.85;0.40;;;;;;;;;;5079027;28;20025;-73
2023/06/17 02:35:15;;;;;;;0.77;0.40;;;;;;;;;;5079918;28;20024;-73
2023/06/17 02:37:41;;;;;;;0.60;0.40;;;;;;;;;;5068936;28;20030;-72
2023/06/17 02:40:09;;;;;;;0.82;0.50;;;;;;;;;;5071629;28;20040;-74
2023/06/17 02:42:38;;;;;;;0.95;0.30;;;;;;;;;;5064965;28;20020;-72
2023/06/17 02:45:03;;;;;;;1.42;0.50;;;;;;;;;;5080033;28;20019;-73
2023/06/17 02:47:28;;;;;;;0.43;0.43;;;;;;;;;;5078621;28;20047;-74
2023/06/17 02:49:54;;;;;;;0.75;0.60;;;;;;;;;;5077763;28;20039;-73
2023/06/17 02:52:21;;;;;;;0.40;0.40;;;;;;;;;;5079901;28;20114;-73
2023/06/17 02:54:46;;;;;;;0.55;0.52;;;;;;;;;;5072194;28;20016;-73
2023/06/17 02:57:11;;;;;;;2.42;0.50;;;;;;;;;;5072370;28;20029;-73
2023/06/17 02:59:37;;;;;;;0.57;0.47;;;;;;;;;;5081450;28;20302;-73
2023/06/17 03:02:03;;;;;;;1.67;0.50;;;;;;;;;;5080280;28;20439;-74
2023/06/17 03:04:34;;;;;;;0.68;0.35;;;;;;;;;;5077434;28;20032;-73
2023/06/17 03:07:00;;;;;;;0.40;0.40;;;;;;;;;;5076278;28;20107;-73
2023/06/17 03:09:26;;;;;;;1.52;0.55;;;;;;;;;;5076777;28;20107;-73
2023/06/17 03:11:51;;;;;;;0.40;0.40;;;;;;;;;;5070707;28;20452;-74
2023/06/17 03:14:19;;;;;;;1.88;0.70;;;;;;;;;;5079734;28;20032;-75
2023/06/17 03:16:44;;;;;;;1.00;0.70;;;;;;;;;;5077170;28;20098;-73
2023/06/17 03:19:10;;;;;;;1.90;0.70;;;;;;;;;;5080717;28;20100;-74
2023/06/17 03:21:40;;;;;;;0.90;0.75;;;;;;;;;;5078916;28;20035;-76
2023/06/17 03:24:06;;;;;;;1.67;0.88;;;;;;;;;;5076565;28;20075;-76
2023/06/17 03:26:31;;;;;;;0.90;0.65;;;;;;;;;;5070240;28;20451;-73
2023/06/17 03:28:56;;;;;;;1.08;0.70;;;;;;;;;;5078812;28;20028;-77
2023/06/17 03:31:22;;;;;;;0.85;0.77;;;;;;;;;;5077976;28;20036;-73
2023/06/17 03:33:50;;;;;;;2.35;1.10;;;;;;;;;;5080143;28;20031;-74
2023/06/17 03:36:18;;;;;;;1.58;0.73;;;;;;;;;;5078355;28;20028;-74
2023/06/17 03:38:44;;;;;;;1.10;0.90;;;;;;;;;;5079032;28;20028;-73
2023/06/17 03:41:09;;;;;;;0.73;0.60;;;;;;;;;;5068382;28;21222;-73
2023/06/17 03:43:35;;;;;;;0.50;0.50;;;;;;;;;;5065276;28;20024;-72
2023/06/17 03:46:00;;;;;;;0.60;0.60;;;;;;;;;;5059692;28;20028;-73
2023/06/17 03:48:25;;;;;;;1.15;0.50;;;;;;;;;;5062004;28;20024;-74
2023/06/17 03:50:50;;;;;;;0.85;0.50;;;;;;;;;;5077291;28;20135;-75
2023/06/17 03:53:16;;;;;;;0.88;0.40;;;;;;;;;;5080288;28;20030;-75
2023/06/17 03:55:41;;;;;;;1.23;0.60;;;;;;;;;;5072544;28;20111;-74
2023/06/17 03:58:06;;;;;;;1.73;0.52;;;;;;;;;;5076003;28;20076;-77
2023/06/17 04:00:32;;;;;;;1.95;0.50;;;;;;;;;;5073758;28;20027;-74
2023/06/17 04:02:57;;;;;;;1.70;0.70;;;;;;;;;;5080520;28;20439;-73
2023/06/17 04:05:31;;;;;;;2.13;0.80;;;;;;;;;;5080905;28;21175;-75
2023/06/17 04:07:58;;;;;;;1.65;0.50;;;;;;;;;;5079501;28;20377;-74
2023/06/17 04:10:24;;;;;;;0.50;0.50;;;;;;;;;;5068382;28;20036;-74
2023/06/17 04:12:49;;;;;;;0.95;0.40;;;;;;;;;;5064055;28;20031;-72
2023/06/17 04:15:15;;;;;;;0.75;0.50;;;;;;;;;;5063165;28;20100;-72
2023/06/17 04:17:40;;;;;;;1.75;0.40;;;;;;;;;;5058977;28;20048;-72
2023/06/17 04:20:10;;;;;;;1.48;0.50;;;;;;;;;;5061914;28;20036;-76
2023/06/17 04:22:37;;;;;;;0.40;0.40;;;;;;;;;;5060499;28;20030;-75
2023/06/17 04:25:02;;;;;;;1.35;1.00;;;;;;;;;;5059535;28;20115;-74
2023/06/17 04:27:27;;;;;;;1.42;1.30;;;;;;;;;;5062740;28;20111;-75
2023/06/17 04:29:56;;;;;;;2.53;1.23;;;;;;;;;;5061958;28;20061;-74
2023/06/17 04:32:22;;;;;;;2.80;0.85;;;;;;;;;;5063097;28;20432;-72
2023/06/17 04:34:47;;;;;;;0.70;0.70;;;;;;;;;;5060589;28;20036;-76
2023/06/17 04:37:14;;;;;;;0.80;0.80;;;;;;;;;;5059245;28;20079;-73
2023/06/17 04:39:40;;;;;;;0.88;0.60;;;;;;;;;;5060997;28;20036;-75
2023/06/17 04:42:06;;;;;;;1.20;0.70;;;;;;;;;;5059968;28;20047;-73
2023/06/17 04:44:31;;;;;;;0.63;0.63;;;;;;;;;;5059522;28;20089;-75
2023/06/17 04:46:59;;;;;;;0.35;0.35;;;;;;;;;;5057108;28;20036;-74
2023/06/17 04:49:24;;;;;;;1.45;0.50;;;;;;;;;;5060703;28;20029;-74
2023/06/17 04:51:52;;;;;;;0.85;0.60;;;;;;;;;;5058555;28;20462;-78
2023/06/17 04:54:18;;;;;;;0.40;0.40;;;;;;;;;;5070753;28;20024;-78
2023/06/17 04:56:43;;;;;;;2.65;0.60;;;;;;;;;;5071128;28;20024;-77
2023/06/17 04:59:09;;;;;;;0.80;0.80;;;;;;;;;;5082140;28;20040;-75
2023/06/17 05:01:34;;;;;;;2.28;0.77;;;;;;;;;;5080912;28;20032;-76
2023/06/17 05:03:59;;;;;;;1.08;0.52;;;;;;;;;;5068900;28;20016;-74
2023/06/17 05:06:25;;;;;;;1.08;0.75;;;;;;;;;;5059174;28;20076;-74
2023/06/17 05:08:50;;;;;;;0.73;0.50;;;;;;;;;;5062498;28;20336;-74
2023/06/17 05:11:16;;;;;;;1.17;0.63;;;;;;;;;;5064539;28;20071;-73
2023/06/17 05:13:41;;;;;;;1.05;1.00;;;;;;;;;;5062991;28;20055;-74
2023/06/17 05:16:06;;;;;;;2.30;2.03;;;;;;;;;;5061885;28;20447;-76
2023/06/17 05:18:32;;;;;;;2.95;2.05;;;;;;;;;;5060200;28;20032;-74
2023/06/17 05:20:57;;;;;;;2.67;1.65;;;;;;;;;;5064105;28;20034;-73
2023/06/17 05:23:22;;;;;;;3.78;1.52;;;;;;;;;;5061093;28;20178;-77
2023/06/17 05:25:48;;;;;;;3.40;2.20;;;;;;;;;;5062430;28;20040;-74
2023/06/17 05:28:13;;;;;;;2.47;1.90;;;;;;;;;;5058628;28;20035;-77
2023/06/17 05:30:42;;;;;;;3.00;1.60;;;;;;;;;;5061458;28;20028;-72
2023/06/17 05:33:08;;;;;;;;;;;;;;;;;;5079581;28;20028;-74
2023/06/17 05:35:33;;;;;;;1.10;1.10;;;;;;;;;;5078343;28;20385;-76
2023/06/17 05:37:58;;;;;;;1.83;1.02;;;;;;;;;;5072887;28;20035;-78
2023/06/17 05:40:24;;;;;;;3.97;1.33;;;;;;;;;;5074233;28;20027;-74
2023/06/17 05:42:49;;;;;;;1.60;1.50;;;;;;;;;;5072414;28;20035;-74
2023/06/17 05:45:15;;;;;;;1.63;1.35;;;;;;;;;;5073655;28;20024;-75
2023/06/17 05:47:40;;;;;;;2.65;1.77;;;;;;;;;;5078953;28;20024;-75
2023/06/17 05:50:05;;;;;;;2.55;2.10;;;;;;;;;;5076424;28;20036;-77
2023/06/17 05:52:31;;;;;;;4.45;4.15;;;;;;;;;;5075768;28;20038;-74
2023/06/17 05:54:56;;;;;;;6.63;5.82;;;;;;;;;;5068973;28;20089;-74
2023/06/17 05:57:22;;;;;;;5.55;5.15;;;;;;;;;;5067989;28;20276;-77
2023/06/17 05:59:47;;;;;;;5.00;4.10;;;;;;;;;;5069177;28;20036;-75
2023/06/17 06:02:12;;;;;;;3.42;3.13;;;;;;;;;;5068648;28;21425;-77
2023/06/17 06:04:38;;;;;;;4.43;2.78;;;;;;;;;;5068715;28;20451;-75
2023/06/17 06:07:03;;;;;;;5.25;3.60;;;;;;;;;;5074746;28;20067;-78
2023/06/17 06:09:29;;;;;;;8.77;6.20;;;;;;;;;;5068526;28;20070;-76
2023/06/17 06:11:54;;;;;;;8.85;5.97;;;;;;;;;;5074774;28;20016;-77
2023/06/17 06:14:20;;;;;;;41.83;35.15;;;;;;;;;;5069824;28;20101;-77
2023/06/17 06:16:45;;;;;;;87.13;77.93;;;;;;;;;;5068989;28;20017;-76
2023/06/17 06:19:10;;;;;;;78.75;67.90;;;;;;;;;;5066143;28;20028;-78
2023/06/17 06:21:36;;;;;;;54.75;46.65;;;;;;;;;;5080099;28;20175;-77
2023/06/17 06:24:01;;;;;;;26.75;23.80;;;;;;;;;;5065433;28;20074;-77
2023/06/17 06:26:26;;;;;;;12.60;11.30;;;;;;;;;;5064090;28;20108;-76
2023/06/17 06:28:52;;;;;;;8.77;7.90;;;;;;;;;;5073142;28;20032;-76
2023/06/17 06:31:17;;;;;;;6.65;5.65;;;;;;;;;;5078787;28;20036;-76
2023/06/17 06:33:42;;;;;;;3.42;3.22;;;;;;;;;;5075323;28;20063;-77
2023/06/17 06:36:09;;;;;;;3.40;3.20;;;;;;;;;;5072061;28;20036;-77
2023/06/17 06:38:34;;;;;;;3.13;2.80;;;;;;;;;;5071362;28;20438;-79
2023/06/17 06:41:00;;;;;;;2.88;2.67;;;;;;;;;;5075449;28;20044;-77
2023/06/17 06:43:25;;;;;;;3.15;2.80;;;;;;;;;;5072697;28;20354;-77
2023/06/17 06:45:51;;;;;;;17.38;8.18;;;;;;;;;;5068743;28;20749;-79
2023/06/17 06:48:16;;;;;;;8.80;5.85;;;;;;;;;;5069220;28;20028;-77
2023/06/17 06:50:42;;;;;;;4.90;4.35;;;;;;;;;;5067519;28;20048;-77
2023/06/17 06:53:07;;;;;;;14.20;11.90;;;;;;;;;;5065853;28;20419;-76
2023/06/17 06:55:32;;;;;;;17.13;14.65;;;;;;;;;;5068051;28;20026;-78
2023/06/17 06:57:58;;;;;;;17.80;11.77;;;;;;;;;;5064667;28;20063;-80
2023/06/17 07:00:24;;;;;;;11.95;8.27;;;;;;;;;;5068081;28;20043;-79
2023/06/17 07:02:50;;;;;;;17.52;10.23;;;;;;;;;;5066824;28;20028;-77
2023/06/17 07:05:16;;;;;;;9.13;4.60;;;;;;;;;;5066990;28;20150;-77
2023/06/17 07:07:41;;;;;;;5.35;4.10;;;;;;;;;;5066619;28;20585;-78
2023/06/17 07:10:06;;;;;;;8.77;5.10;;;;;;;;;;5067280;28;20162;-76
2023/06/17 07:12:32;;;;;;;6.97;4.93;;;;;;;;;;5062128;28;20040;-78
2023/06/17 07:14:57;;;;;;;4.63;3.78;;;;;;;;;;5059855;28;20436;-76
2023/06/17 07:17:22;;;;;;;9.20;7.55;;;;;;;;;;5062310;28;20024;-77
2023/06/17 07:19:48;;;;;;;10.52;8.13;;;;;;;;;;5065557;28;20356;-79
2023/06/17 07:22:13;;;;;;;9.30;5.00;;;;;;;;;;5077709;28;20055;-73
2023/06/17 07:24:39;;;;;;;7.78;5.00;;;;;;;;;;5069074;28;20032;-75
2023/06/17 07:27:04;;;;;;;12.00;5.32;;;;;;;;;;5073966;28;20407;-78
2023/06/17 07:29:30;;;;;;;2.90;2.60;;;;;;;;;;5068140;28;20137;-77
2023/06/17 07:31:55;;;;;;;4.55;3.05;;;;;;;;;;5083266;28;20029;-72
2023/06/17 07:34:20;;;;;;;5.68;3.15;;;;;;;;;;5079849;28;20028;-74
2023/06/17 07:36:46;;;;;;;3.25;2.35;;;;;;;;;;5071025;28;20032;-76
2023/06/17 07:39:12;;;;;;;2.88;2.55;;;;;;;;;;5072279;28;20084;-76
2023/06/17 07:41:37;;;;;;;3.17;2.92;;;;;;;;;;5081784;28;20052;-75
2023/06/17 07:44:04;;;;;;;7.13;3.72;;;;;;;;;;5083926;28;20054;-76
2023/06/17 07:46:31;;;;;;;3.40;2.75;;;;;;;;;;5078877;28;20449;-75
2023/06/17 07:48:56;;;;;;;10.73;4.90;;;;;;;;;;5070126;28;20042;-74
2023/06/17 07:51:22;;;;;;;3.47;3.17;;;;;;;;;;5082718;28;20035;-76
2023/06/17 07:53:47;;;;;;;2.30;2.10;;;;;;;;;;5072151;28;20028;-78
2023/06/17 07:56:13;;;;;;;3.80;3.15;;;;;;;;;;5081235;28;20161;-78
2023/06/17 07:58:38;;;;;;;3.97;3.00;;;;;;;;;;5082941;28;20166;-78
2023/06/17 08:01:04;;;;;;;3.30;2.20;;;;;;;;;;5081912;28;20032;-77
2023/06/17 08:03:29;;;;;;;2.60;2.40;;;;;;;;;;5080505;28;20052;-75
2023/06/17 08:05:54;;;;;;;2.05;1.90;;;;;;;;;;5075586;28;20024;-75
2023/06/17 08:08:20;;;;;;;2.42;2.08;;;;;;;;;;5069088;28;20028;-76
2023/06/17 08:10:45;;;;;;;1.73;1.63;;;;;;;;;;5076687;28;20119;-76
2023/06/17 08:13:11;;;;;;;5.03;4.05;;;;;;;;;;5078983;28;20096;-75
2023/06/17 08:15:36;;;;;;;2.28;2.08;;;;;;;;;;5078055;28;20028;-74
2023/06/17 08:18:01;;;;;;;2.40;1.75;;;;;;;;;;5068808;28;20035;-77
2023/06/17 08:20:27;;;;;;;2.50;1.70;;;;;;;;;;5064596;28;20067;-74
2023/06/17 08:22:52;;;;;;;2.08;1.50;;;;;;;;;;5064964;28;20031;-76
2023/06/17 08:25:17;;;;;;;2.55;1.55;;;;;;;;;;5064564;28;20052;-76
2023/06/17 08:27:47;;;;;;;1.42;1.33;;;;;;;;;;5067786;28;20112;-77
2023/06/17 08:30:13;;;;;;;1.88;1.73;;;;;;;;;;5072177;28;20020;-78
2023/06/17 08:32:38;;;;;;;1.90;1.80;;;;;;;;;;5081559;28;20769;-74
2023/06/17 08:35:06;;;;;;;2.05;1.88;;;;;;;;;;5084394;28;20019;-75
2023/06/17 08:37:31;;;;;;;4.32;1.85;;;;;;;;;;5081876;28;20024;-77
2023/06/17 08:39:57;;;;;;;2.08;1.88;;;;;;;;;;5067548;28;20443;-74
2023/06/17 08:42:22;;;;;;;2.95;2.53;;;;;;;;;;5075994;28;20028;-75
2023/06/17 08:44:48;;;;;;;4.65;4.25;;;;;;;;;;5082070;28;20032;-77
2023/06/17 08:47:15;;;;;;;4.43;4.03;;;;;;;;;;5078810;28;20082;-75
2023/06/17 08:49:42;;;;;;;6.55;2.75;;;;;;;;;;5082734;28;20028;-75
2023/06/17 08:52:08;;;;;;;3.10;2.45;;;;;;;;;;5069111;28;20047;-75
2023/06/17 08:54:40;;;;;;;2.92;2.72;;;;;;;;;;5069184;28;20431;-76
2023/06/17 08:57:07;;;;;;;2.10;2.00;;;;;;;;;;5072919;28;20401;-76
2023/06/17 08:59:32;;;;;;;2.10;2.00;;;;;;;;;;5073721;28;20059;-76
2023/06/17 09:01:58;;;;;;;2.08;1.88;;;;;;;;;;5082080;28;20086;-76
2023/06/17 09:04:23;;;;;;;2.33;2.13;;;;;;;;;;5076283;28;20060;-73
2023/06/17 09:06:48;;;;;;;2.20;2.03;;;;;;;;;;5066575;28;20039;-76
2023/06/17 09:09:14;;;;;;;3.40;2.05;;;;;;;;;;5078459;28;20043;-72
2023/06/17 09:11:44;;;;;;;2.47;2.28;;;;;;;;;;5070849;28;20040;-76
2023/06/17 09:14:09;;;;;;;4.35;2.05;;;;;;;;;;5080916;28;20703;-74
2023/06/17 09:16:35;;;;;;;2.00;1.90;;;;;;;;;;5077781;28;20135;-73
2023/06/17 09:19:02;;;;;;;1.90;1.67;;;;;;;;;;5077797;28;20367;-75
2023/06/17 09:21:28;;;;;;;2.95;1.40;;;;;;;;;;5071027;28;20467;-73
2023/06/17 09:24:00;;;;;;;2.58;1.98;;;;;;;;;;5080961;28;20032;-78
2023/06/17 09:26:28;;;;;;;1.80;1.67;;;;;;;;;;5078518;28;20032;-74
2023/06/17 09:28:58;;;;;;;2.38;2.17;;;;;;;;;;5079837;28;20024;-73
2023/06/17 09:31:24;;;;;;;1.75;1.63;;;;;;;;;;5079861;28;20106;-74
2023/06/17 09:33:49;;;;;;;1.92;1.83;;;;;;;;;;5081968;28;20213;-73
2023/06/17 09:36:17;;;;;;;2.28;2.00;;;;;;;;;;5081434;28;20327;-74
2023/06/17 09:38:42;;;;;;;1.73;1.63;;;;;;;;;;5065372;28;20028;-72
2023/06/17 09:41:12;;;;;;;2.10;1.70;;;;;;;;;;5063088;28;20039;-73
2023/06/17 09:43:37;;;;;;;;;;;;;;;;;;5061927;28;20095;-71
2023/06/17 09:46:03;;;;;;;2.10;1.83;;;;;;;;;;5064904;28;20065;-76
2023/06/17 09:48:32;;;;;;;4.32;2.25;;;;;;;;;;5073441;28;20465;-75
2023/06/17 09:50:57;;;;;;;1.80;1.70;;;;;;;;;;5072664;28;20351;-75
2023/06/17 09:53:26;;;;;;;1.63;1.52;;;;;;;;;;5062261;28;20036;-77
2023/06/17 09:55:55;;;;;;;2.45;1.70;;;;;;;;;;5067578;28;20036;-80
2023/06/17 09:58:20;;;;;;;;;;;;;;;;;;5070131;28;20075;-75
2023/06/17 10:00:46;;;;;;;1.60;1.50;;;;;;;;;;5077276;28;19960;-75
2023/06/17 10:03:11;;;;;;;1.50;1.40;;;;;;;;;;5061387;28;20043;-75
2023/06/17 10:05:37;;;;;;;2.85;1.83;;;;;;;;;;5064372;28;20020;-73
2023/06/17 10:08:03;;;;;;;2.45;2.25;;;;;;;;;;5063159;28;20380;-77
2023/06/17 10:10:29;;;;;;;2.55;2.35;;;;;;;;;;5066845;28;20324;-75
2023/06/17 10:12:56;;;;;;;2.95;2.75;;;;;;;;;;5066230;28;20125;-74
2023/06/17 10:15:22;;;;;;;3.88;2.97;;;;;;;;;;5067559;28;20032;-73
2023/06/17 10:17:48;;;;;;;3.95;2.65;;;;;;;;;;5063315;28;20397;-75
2023/06/17 10:20:14;;;;;;;3.08;2.38;;;;;;;;;;5070465;28;20446;-75
2023/06/17 10:22:40;;;;;;;2.75;2.55;;;;;;;;;;5071138;28;20028;-73
2023/06/17 10:25:09;;;;;;;2.75;2.55;;;;;;;;;;5068546;28;20050;-73
2023/06/17 10:27:35;;;;;;;2.33;2.13;;;;;;;;;;5068758;28;20116;-74
2023/06/17 10:30:00;;;;;;;5.05;3.97;;;;;;;;;;5068311;28;20066;-77
2023/06/17 10:32:26;;;;;;;8.95;5.93;;;;;;;;;;5062661;28;20024;-74
2023/06/17 10:35:08;;;;;;;4.90;3.03;;;;;;;;;;5059390;28;20415;-74
2023/06/17 10:37:41;;;;;;;4.00;2.85;;;;;;;;;;5060216;28;20020;-75
2023/06/17 10:40:25;;;;;;;4.25;3.28;;;;;;;;;;5066643;28;20098;-74
2023/06/17 10:43:00;;;;;;;4.75;3.40;;;;;;;;;;5078245;28;20036;-75
2023/06/17 10:45:27;;;;;;;4.45;3.63;;;;;;;;;;5071406;28;20035;-75
2023/06/17 10:48:12;;;;;;;5.68;4.18;;;;;;;;;;5068067;28;20032;-74
2023/06/17 10:50:37;;;;;;;3.50;3.20;;;;;;;;;;5080611;28;20347;-74
2023/06/17 10:53:02;;;;;;;3.22;2.58;;;;;;;;;;5072575;28;20031;-76
2023/06/17 10:55:28;;;;;;;26.08;15.80;;;;;;;;;;5074475;28;20028;-77
2023/06/17 10:57:57;;;;;;;12.40;10.30;;;;;;;;;;5080411;28;20055;-76
2023/06/17 11:00:23;;;;;;;13.77;9.98;;;;;;;;;;5068928;28;20031;-77
2023/06/17 11:02:49;;;;;;;9.32;8.32;;;;;;;;;;5072425;28;20040;-79
2023/06/17 11:05:15;;;;;;;5.88;4.63;;;;;;;;;;5079208;28;20050;-80
2023/06/17 11:07:40;;;;;;;17.80;16.02;;;;;;;;;;5074063;28;20039;-77
2023/06/17 11:10:06;;;;;;;16.95;15.25;;;;;;;;;;5073221;28;20032;-79
2023/06/17 11:12:34;;;;;;;8.18;6.00;;;;;;;;;;5080394;28;20370;-77
2023/06/17 11:14:59;;;;;;;6.32;4.68;;;;;;;;;;5080028;28;20097;-76
2023/06/17 11:17:25;;;;;;;9.77;4.45;;;;;;;;;;5079508;28;20423;-76
2023/06/17 11:19:50;;;;;;;9.00;7.93;;;;;;;;;;5060163;28;20042;-77
2023/06/17 11:22:15;;;;;;;5.07;4.53;;;;;;;;;;5065302;28;20066;-78
2023/06/17 11:24:43;;;;;;;3.80;3.50;;;;;;;;;;5064400;28;20063;-78
2023/06/17 11:27:10;;;;;;;3.53;2.75;;;;;;;;;;5064352;28;20047;-78
2023/06/17 11:29:40;;;;;;;3.90;2.90;;;;;;;;;;5061730;28;20032;-77
2023/06/17 11:32:05;;;;;;;3.13;2.83;;;;;;;;;;5060590;28;20036;-78
2023/06/17 11:34:32;;;;;;;2.72;2.53;;;;;;;;;;5064842;28;20434;-78
2023/06/17 11:37:00;;;;;;;3.47;2.90;;;;;;;;;;5065338;28;20320;-79
2023/06/17 11:39:27;;;;;;;3.40;3.10;;;;;;;;;;5067238;28;20047;-77
2023/06/17 11:41:52;;;;;;;4.20;3.53;;;;;;;;;;5074900;28;20020;-81
2023/06/17 11:44:18;;;;;;;3.95;3.25;;;;;;;;;;5072016;28;20032;-78
2023/06/17 11:46:44;;;;;;;4.20;3.80;;;;;;;;;;5079816;28;20052;-78
2023/06/17 11:49:09;;;;;;;3.92;3.38;;;;;;;;;;5081622;28;20035;-77
2023/06/17 11:51:36;;;;;;;4.80;3.33;;;;;;;;;;5070062;28;20040;-79
2023/06/17 11:54:05;;;;;;;6.88;3.78;;;;;;;;;;5067336;28;20024;-79
2023/06/17 11:56:32;;;;;;;9.90;4.22;;;;;;;;;;5073762;28;20350;-79
2023/06/17 11:58:57;;;;;;;4.50;4.10;;;;;;;;;;5080329;28;20257;-80
2023/06/17 12:01:24;;;;;;;6.03;3.80;;;;;;;;;;5079426;28;20127;-80
2023/06/17 12:03:49;;;;;;;4.82;3.80;;;;;;;;;;5080963;28;20110;-79
2023/06/17 12:06:21;;;;;;;4.55;4.10;;;;;;;;;;5070688;28;20079;-79
2023/06/17 12:08:57;;;;;;;5.80;4.50;;;;;;;;;;5064716;28;20012;-78
2023/06/17 12:11:31;;;;;;;6.85;4.60;;;;;;;;;;5067739;28;20135;-78
2023/06/17 12:13:57;;;;;;;5.32;4.00;;;;;;;;;;5063308;28;20124;-78
2023/06/17 12:16:23;;;;;;;9.85;5.18;;;;;;;;;;5082392;28;20074;-79
2023/06/17 12:18:50;;;;;;;6.40;4.50;;;;;;;;;;5083249;28;20422;-77
2023/06/17 12:21:15;;;;;;;5.22;4.22;;;;;;;;;;5075999;28;20031;-79
2023/06/17 12:23:40;;;;;;;4.78;4.15;;;;;;;;;;5067830;28;20039;-78
2023/06/17 12:26:06;;;;;;;8.30;5.43;;;;;;;;;;5084614;28;20035;-80
2023/06/17 12:28:32;;;;;;;5.00;4.60;;;;;;;;;;5083351;28;20023;-78
2023/06/17 12:30:57;;;;;;;25.95;23.20;;;;;;;;;;5080935;28;20461;-78
2023/06/17 12:33:23;;;;;;;133.20;120.70;;;;;;;;;;5083630;28;20024;-76
2023/06/17 12:35:50;;;;;;;41.75;38.03;;;;;;;;;;5075372;28;20059;-78
2023/06/17 12:38:15;;;;;;;14.38;13.18;;;;;;;;;;5076511;28;20139;-78
2023/06/17 12:40:41;;;;;;;9.85;8.85;;;;;;;;;;5082114;28;20106;-79
2023/06/17 12:43:07;;;;;;;6.05;5.55;;;;;;;;;;5084144;28;20516;-80
2023/06/17 12:45:32;;;;;;;5.53;5.03;;;;;;;;;;5084980;28;20070;-78
2023/06/17 12:47:57;;;;;;;4.80;4.40;;;;;;;;;;5084356;28;20023;-78
2023/06/17 12:50:23;;;;;;;7.30;4.60;;;;;;;;;;5077707;28;20028;-80
2023/06/17 12:52:51;;;;;;;5.20;4.72;;;;;;;;;;5073143;28;20036;-80
2023/06/17 12:55:17;;;;;;;6.60;5.25;;;;;;;;;;5071313;28;20089;-78
2023/06/17 12:57:42;;;;;;;9.38;6.88;;;;;;;;;;5083331;28;20048;-78
2023/06/17 13:00:08;;;;;;;35.63;31.88;;;;;;;;;;5083533;28;20649;-79
2023/06/17 13:02:35;;;;;;;11.38;8.45;;;;;;;;;;5084707;28;20359;-79
2023/06/17 13:05:01;;;;;;;33.00;29.13;;;;;;;;;;5082791;28;20023;-79
2023/06/17 13:07:26;;;;;;;12.65;11.38;;;;;;;;;;5069976;28;20031;-79
2023/06/17 13:09:52;;;;;;;5.40;5.00;;;;;;;;;;5078018;28;20071;-80
2023/06/17 13:12:18;;;;;;;5.05;4.00;;;;;;;;;;5060745;28;20593;-78
2023/06/17 13:14:46;;;;;;;6.60;6.00;;;;;;;;;;5063207;28;20104;-79
2023/06/17 13:17:12;;;;;;;6.97;5.88;;;;;;;;;;5058045;28;20020;-78
2023/06/17 13:19:37;;;;;;;6.30;5.32;;;;;;;;;;5060800;28;20063;-79
2023/06/17 13:22:03;;;;;;;10.18;9.15;;;;;;;;;;5062592;28;20031;-79
2023/06/17 13:24:28;;;;;;;10.82;9.75;;;;;;;;;;5062050;28;20109;-80
2023/06/17 13:26:54;;;;;;;6.65;6.07;;;;;;;;;;5064883;28;20423;-76
2023/06/17 13:29:21;;;;;;;6.47;5.88;;;;;;;;;;5066565;28;20028;-79
2023/06/17 13:31:47;;;;;;;4.90;4.40;;;;;;;;;;5063668;28;20038;-79
2023/06/17 13:34:13;;;;;;;4.90;4.50;;;;;;;;;;5065597;28;20104;-76
2023/06/17 13:36:42;;;;;;;5.40;4.90;;;;;;;;;;5069560;28;20031;-77
2023/06/17 13:39:08;;;;;;;5.70;4.90;;;;;;;;;;5082653;28;20028;-79
2023/06/17 13:41:33;;;;;;;5.40;4.90;;;;;;;;;;5072313;28;20508;-78
2023/06/17 13:43:59;;;;;;;4.90;4.38;;;;;;;;;;5078452;28;20028;-77
2023/06/17 13:46:24;;;;;;;7.50;5.60;;;;;;;;;;5081255;28;20359;-75
2023/06/17 13:48:50;;;;;;;5.65;4.32;;;;;;;;;;5080675;28;20024;-75
2023/06/17 13:51:16;;;;;;;6.10;4.28;;;;;;;;;;5075466;28;20032;-79
2023/06/17 13:53:41;;;;;;;10.82;5.75;;;;;;;;;;5063661;28;20035;-82
2023/06/17 13:56:07;;;;;;;8.80;5.75;;;;;;;;;;5075363;28;20027;-84
2023/06/17 13:58:32;;;;;;;10.07;8.75;;;;;;;;;;5060162;28;20052;-82
2023/06/17 14:00:57;;;;;;;6.53;5.93;;;;;;;;;;5059957;28;20417;-75
2023/06/17 14:03:23;;;;;;;5.25;4.82;;;;;;;;;;5060575;28;20024;-79
2023/06/17 14:05:48;;;;;;;7.90;6.43;;;;;;;;;;5063479;28;20055;-82
2023/06/17 14:08:14;;;;;;;7.78;6.30;;;;;;;;;;5065175;28;20431;-82
2023/06/17 14:10:39;;;;;;;8.43;7.15;;;;;;;;;;5076881;28;20911;-80
2023/06/17 14:13:05;;;;;;;6.03;5.45;;;;;;;;;;5073785;28;20380;-80
2023/06/17 14:15:30;;;;;;;6.10;5.50;;;;;;;;;;5074130;28;20385;-79
2023/06/17 14:17:56;;;;;;;10.10;9.10;;;;;;;;;;5072144;28;20035;-78
2023/06/17 14:20:21;;;;;;;11.88;8.35;;;;;;;;;;5068789;28;20036;-80
2023/06/17 14:22:57;;;;;;;7.55;6.45;;;;;;;;;;5079149;28;20776;-79
2023/06/17 14:25:24;;;;;;;6.85;6.00;;;;;;;;;;5020569;28;20087;-79
2023/06/17 14:27:50;;;;;;;6.18;5.57;;;;;;;;;;5068254;28;20051;-77
2023/06/17 14:30:15;;;;;;;7.35;6.13;;;;;;;;;;5070848;28;20103;-77
2023/06/17 14:32:41;;;;;;;6.22;5.20;;;;;;;;;;5074285;28;20028;-79
2023/06/17 14:35:08;;;;;;;6.95;5.60;;;;;;;;;;5080409;28;20470;-78